sensor_id;sensor_type;location;lat;lon;timestamp;pressure;altitude;pressure_sealevel;temperature;humidity
35577;BME280;21680;52.400;16.920;2022-09-01T00:00:19;101388.09;;;14.29;60.00
35577;BME280;21680;52.400;16.920;2022-09-01T00:02:46;101388.09;;;14.29;59.96
35577;BME280;21680;52.400;16.920;2022-09-01T00:05:12;101376.72;;;14.23;60.05
35577;BME280;21680;52.400;16.920;2022-09-01T00:07:38;101379.16;;;14.19;60.21
35577;BME280;21680;52.400;16.920;2022-09-01T00:10:05;101377.14;;;14.14;60.30
35577;BME280;21680;52.400;16.920;2022-09-01T00:12:32;101381.26;;;14.12;60.44
35577;BME280;21680;52.400;16.920;2022-09-01T00:14:58;101378.56;;;14.12;60.45
35577;BME280;21680;52.400;16.920;2022-09-01T00:17:24;101377.61;;;14.13;60.63
35577;BME280;21680;52.400;16.920;2022-09-01T00:19:50;101376.81;;;14.11;60.51
35577;BME280;21680;52.400;16.920;2022-09-01T00:22:17;101374.73;;;14.08;60.60
35577;BME280;21680;52.400;16.920;2022-09-01T00:24:43;101376.55;;;14.07;60.67
35577;BME280;21680;52.400;16.920;2022-09-01T00:27:09;101377.17;;;14.04;60.64
35577;BME280;21680;52.400;16.920;2022-09-01T00:29:35;101370.16;;;14.00;60.86
35577;BME280;21680;52.400;16.920;2022-09-01T00:32:01;101375.16;;;13.98;60.92
35577;BME280;21680;52.400;16.920;2022-09-01T00:34:26;101383.64;;;14.00;60.99
35577;BME280;21680;52.400;16.920;2022-09-01T00:36:52;101379.59;;;14.00;60.94
35577;BME280;21680;52.400;16.920;2022-09-01T00:39:18;101375.16;;;13.98;60.94
35577;BME280;21680;52.400;16.920;2022-09-01T00:41:44;101379.81;;;13.95;60.90
35577;BME280;21680;52.400;16.920;2022-09-01T00:44:13;101379.55;;;13.91;61.11
35577;BME280;21680;52.400;16.920;2022-09-01T00:46:42;101383.25;;;13.88;61.19
35577;BME280;21680;52.400;16.920;2022-09-01T00:49:11;101380.77;;;13.84;61.21
35577;BME280;21680;52.400;16.920;2022-09-01T00:51:39;101380.57;;;13.78;61.40
35577;BME280;21680;52.400;16.920;2022-09-01T00:54:07;101376.67;;;13.75;61.45
35577;BME280;21680;52.400;16.920;2022-09-01T00:56:36;101380.58;;;13.68;61.60
35577;BME280;21680;52.400;16.920;2022-09-01T00:59:04;101378.02;;;13.65;61.72
35577;BME280;21680;52.400;16.920;2022-09-01T01:01:32;101372.50;;;13.58;61.89
35577;BME280;21680;52.400;16.920;2022-09-01T01:04:06;101376.67;;;13.55;62.08
35577;BME280;21680;52.400;16.920;2022-09-01T01:06:29;101376.81;;;13.52;62.21
35577;BME280;21680;52.400;16.920;2022-09-01T01:08:57;101375.66;;;13.47;62.12
35577;BME280;21680;52.400;16.920;2022-09-01T01:11:26;101378.02;;;13.45;62.28
35577;BME280;21680;52.400;16.920;2022-09-01T01:13:55;101380.91;;;13.40;62.26
35577;BME280;21680;52.400;16.920;2022-09-01T01:16:31;101378.89;;;13.35;62.41
35577;BME280;21680;52.400;16.920;2022-09-01T01:18:56;101378.21;;;13.30;62.58
35577;BME280;21680;52.400;16.920;2022-09-01T01:21:28;101378.41;;;13.25;62.82
35577;BME280;21680;52.400;16.920;2022-09-01T01:24:23;101384.39;;;13.22;62.98
35577;BME280;21680;52.400;16.920;2022-09-01T01:26:56;101377.73;;;13.20;63.04
35577;BME280;21680;52.400;16.920;2022-09-01T01:29:24;101381.36;;;13.19;63.11
35577;BME280;21680;52.400;16.920;2022-09-01T01:31:51;101379.61;;;13.18;63.18
35577;BME280;21680;52.400;16.920;2022-09-01T01:34:18;101373.45;;;13.15;63.28
35577;BME280;21680;52.400;16.920;2022-09-01T01:36:44;101378.42;;;13.14;63.36
35577;BME280;21680;52.400;16.920;2022-09-01T01:39:12;101373.51;;;13.13;63.41
35577;BME280;21680;52.400;16.920;2022-09-01T01:41:41;101374.98;;;13.10;63.51
35577;BME280;21680;52.400;16.920;2022-09-01T01:44:11;101375.98;;;13.08;63.70
35577;BME280;21680;52.400;16.920;2022-09-01T01:46:39;101374.17;;;13.08;63.86
35577;BME280;21680;52.400;16.920;2022-09-01T01:49:07;101370.61;;;13.08;63.92
35577;BME280;21680;52.400;16.920;2022-09-01T01:51:34;101368.86;;;13.07;64.02
35577;BME280;21680;52.400;16.920;2022-09-01T01:54:01;101368.92;;;13.05;63.91
35577;BME280;21680;52.400;16.920;2022-09-01T01:56:28;101364.95;;;13.04;64.18
35577;BME280;21680;52.400;16.920;2022-09-01T01:58:55;101362.79;;;13.01;64.19
35577;BME280;21680;52.400;16.920;2022-09-01T02:01:25;101363.20;;;13.03;64.22
35577;BME280;21680;52.400;16.920;2022-09-01T02:03:58;101369.05;;;13.02;64.28
35577;BME280;21680;52.400;16.920;2022-09-01T02:06:22;101362.08;;;12.98;64.35
35577;BME280;21680;52.400;16.920;2022-09-01T02:08:52;101376.20;;;12.93;64.69
35577;BME280;21680;52.400;16.920;2022-09-01T02:11:25;101376.73;;;12.91;64.65
35577;BME280;21680;52.400;16.920;2022-09-01T02:13:54;101376.38;;;12.88;64.72
35577;BME280;21680;52.400;16.920;2022-09-01T02:16:25;101385.05;;;12.85;64.87
35577;BME280;21680;52.400;16.920;2022-09-01T02:18:52;101375.35;;;12.81;65.06
35577;BME280;21680;52.400;16.920;2022-09-01T02:21:20;101384.89;;;12.78;65.19
35577;BME280;21680;52.400;16.920;2022-09-01T02:23:48;101380.45;;;12.77;65.19
35577;BME280;21680;52.400;16.920;2022-09-01T02:26:26;101375.60;;;12.75;65.22
35577;BME280;21680;52.400;16.920;2022-09-01T02:28:54;101379.23;;;12.74;65.40
35577;BME280;21680;52.400;16.920;2022-09-01T02:31:20;101374.32;;;12.73;65.43
35577;BME280;21680;52.400;16.920;2022-09-01T02:33:47;101374.79;;;12.73;65.57
35577;BME280;21680;52.400;16.920;2022-09-01T02:36:14;101373.45;;;12.73;65.58
35577;BME280;21680;52.400;16.920;2022-09-01T02:38:42;101373.91;;;12.72;65.64
35577;BME280;21680;52.400;16.920;2022-09-01T02:41:10;101376.13;;;12.73;65.62
35577;BME280;21680;52.400;16.920;2022-09-01T02:43:38;101374.79;;;12.73;65.77
35577;BME280;21680;52.400;16.920;2022-09-01T02:46:05;101373.91;;;12.72;65.71
35577;BME280;21680;52.400;16.920;2022-09-01T02:48:32;101369.00;;;12.72;65.93
35577;BME280;21680;52.400;16.920;2022-09-01T02:51:03;101372.16;;;12.71;65.94
35577;BME280;21680;52.400;16.920;2022-09-01T02:53:30;101365.91;;;12.71;65.78
35577;BME280;21680;52.400;16.920;2022-09-01T02:55:59;101374.04;;;12.69;65.97
35577;BME280;21680;52.400;16.920;2022-09-01T02:58:30;101367.72;;;12.70;66.11
35577;BME280;21680;52.400;16.920;2022-09-01T03:00:58;101363.69;;;12.70;66.04
35577;BME280;21680;52.400;16.920;2022-09-01T03:03:24;101365.44;;;12.71;66.15
35577;BME280;21680;52.400;16.920;2022-09-01T03:05:52;101367.31;;;12.69;66.01
35577;BME280;21680;52.400;16.920;2022-09-01T03:08:19;101361.52;;;12.68;65.98
35577;BME280;21680;52.400;16.920;2022-09-01T03:10:45;101368.72;;;12.67;66.27
35577;BME280;21680;52.400;16.920;2022-09-01T03:13:15;101369.13;;;12.68;66.24
35577;BME280;21680;52.400;16.920;2022-09-01T03:15:43;101369.19;;;12.67;66.16
35577;BME280;21680;52.400;16.920;2022-09-01T03:18:10;101371.34;;;12.69;66.21
35577;BME280;21680;52.400;16.920;2022-09-01T03:20:38;101369.13;;;12.68;66.31
35577;BME280;21680;52.400;16.920;2022-09-01T03:23:08;101365.09;;;12.68;66.25
35577;BME280;21680;52.400;16.920;2022-09-01T03:25:37;101362.87;;;12.68;66.33
35577;BME280;21680;52.400;16.920;2022-09-01T03:28:03;101366.09;;;12.66;66.34
35577;BME280;21680;52.400;16.920;2022-09-01T03:30:32;101360.37;;;12.63;66.39
35577;BME280;21680;52.400;16.920;2022-09-01T03:32:59;101366.22;;;12.63;66.54
35577;BME280;21680;52.400;16.920;2022-09-01T03:35:27;101365.34;;;12.62;66.54
35577;BME280;21680;52.400;16.920;2022-09-01T03:37:56;101364.00;;;12.62;66.58
35577;BME280;21680;52.400;16.920;2022-09-01T03:40:24;101368.44;;;12.63;66.84
35577;BME280;21680;52.400;16.920;2022-09-01T03:42:52;101365.34;;;12.62;66.66
35577;BME280;21680;52.400;16.920;2022-09-01T03:45:20;101366.81;;;12.59;66.69
35577;BME280;21680;52.400;16.920;2022-09-01T03:47:46;101366.88;;;12.58;66.96
35577;BME280;21680;52.400;16.920;2022-09-01T03:50:13;101366.05;;;12.56;67.00
35577;BME280;21680;52.400;16.920;2022-09-01T03:52:50;101368.80;;;12.54;66.95
35577;BME280;21680;52.400;16.920;2022-09-01T03:55:19;101371.91;;;12.55;67.08
35577;BME280;21680;52.400;16.920;2022-09-01T03:57:55;101376.00;;;12.54;67.10
35577;BME280;21680;52.400;16.920;2022-09-01T04:00:23;101381.31;;;12.55;67.32
35577;BME280;21680;52.400;16.920;2022-09-01T04:02:53;101384.94;;;12.54;67.26
35577;BME280;21680;52.400;16.920;2022-09-01T04:05:21;101384.47;;;12.55;67.26
35577;BME280;21680;52.400;16.920;2022-09-01T04:07:49;101387.97;;;12.57;67.32
35577;BME280;21680;52.400;16.920;2022-09-01T04:10:16;101391.20;;;12.55;67.36
35577;BME280;21680;52.400;16.920;2022-09-01T04:12:43;101390.72;;;12.55;67.40
35577;BME280;21680;52.400;16.920;2022-09-01T04:15:10;101388.69;;;12.50;67.48
35577;BME280;21680;52.400;16.920;2022-09-01T04:17:38;101390.16;;;12.47;67.58
35577;BME280;21680;52.400;16.920;2022-09-01T04:20:22;101394.66;;;12.47;67.78
35577;BME280;21680;52.400;16.920;2022-09-01T04:22:49;101391.55;;;12.46;67.82
35577;BME280;21680;52.400;16.920;2022-09-01T04:25:17;101390.27;;;12.44;67.89
35577;BME280;21680;52.400;16.920;2022-09-01T04:27:45;101386.83;;;12.41;68.08
35577;BME280;21680;52.400;16.920;2022-09-01T04:30:11;101388.76;;;12.37;68.27
35577;BME280;21680;52.400;16.920;2022-09-01T04:32:37;101389.75;;;12.34;68.39
35577;BME280;21680;52.400;16.920;2022-09-01T04:35:05;101390.34;;;12.31;68.53
35577;BME280;21680;52.400;16.920;2022-09-01T04:37:32;101392.27;;;12.27;68.73
35577;BME280;21680;52.400;16.920;2022-09-01T04:40:02;101375.62;;;12.18;68.97
35577;BME280;21680;52.400;16.920;2022-09-01T04:42:29;101390.34;;;12.19;69.15
35577;BME280;21680;52.400;16.920;2022-09-01T04:44:57;101388.94;;;12.21;69.32
35577;BME280;21680;52.400;16.920;2022-09-01T04:47:25;101389.76;;;12.23;69.26
35577;BME280;21680;52.400;16.920;2022-09-01T04:49:58;101391.92;;;12.25;69.32
35577;BME280;21680;52.400;16.920;2022-09-01T04:52:28;101393.67;;;12.26;69.37
35577;BME280;21680;52.400;16.920;2022-09-01T04:54:52;101400.80;;;12.27;69.48
35577;BME280;21680;52.400;16.920;2022-09-01T04:57:19;101399.75;;;12.31;69.52
35577;BME280;21680;52.400;16.920;2022-09-01T04:59:45;101395.66;;;12.32;69.65
35577;BME280;21680;52.400;16.920;2022-09-01T05:02:11;101391.09;;;12.34;69.56
35577;BME280;21680;52.400;16.920;2022-09-01T05:04:37;101395.54;;;12.35;69.63
35577;BME280;21680;52.400;16.920;2022-09-01T05:07:04;101396.41;;;12.36;69.71
35577;BME280;21680;52.400;16.920;2022-09-01T05:09:31;101391.16;;;12.33;69.68
35577;BME280;21680;52.400;16.920;2022-09-01T05:12:01;101396.13;;;12.32;69.79
35577;BME280;21680;52.400;16.920;2022-09-01T05:14:29;101395.59;;;12.34;69.88
35577;BME280;21680;52.400;16.920;2022-09-01T05:16:57;101391.51;;;12.35;69.94
35577;BME280;21680;52.400;16.920;2022-09-01T05:19:23;101390.39;;;12.41;69.92
35577;BME280;21680;52.400;16.920;2022-09-01T05:21:51;101395.77;;;12.41;70.00
35577;BME280;21680;52.400;16.920;2022-09-01T05:24:19;101393.84;;;12.45;70.10
35577;BME280;21680;52.400;16.920;2022-09-01T05:26:46;101384.77;;;12.47;70.19
35577;BME280;21680;52.400;16.920;2022-09-01T05:29:14;101389.56;;;12.51;70.25
35577;BME280;21680;52.400;16.920;2022-09-01T05:31:46;101387.51;;;12.57;70.30
35577;BME280;21680;52.400;16.920;2022-09-01T05:34:11;101393.05;;;12.64;70.32
35577;BME280;21680;52.400;16.920;2022-09-01T05:36:40;101390.98;;;12.71;70.39
35577;BME280;21680;52.400;16.920;2022-09-01T05:39:09;101392.49;;;12.78;70.34
35577;BME280;21680;52.400;16.920;2022-09-01T05:41:37;101388.33;;;12.81;70.34
35577;BME280;21680;52.400;16.920;2022-09-01T05:44:05;101389.43;;;12.87;70.38
35577;BME280;21680;52.400;16.920;2022-09-01T05:46:32;101389.30;;;12.90;70.37
35577;BME280;21680;52.400;16.920;2022-09-01T05:49:01;101387.70;;;12.96;70.42
35577;BME280;21680;52.400;16.920;2022-09-01T05:51:27;101383.38;;;13.03;70.36
35577;BME280;21680;52.400;16.920;2022-09-01T05:53:55;101382.25;;;13.08;70.37
35577;BME280;21680;52.400;16.920;2022-09-01T05:56:24;101384.62;;;13.16;70.36
35577;BME280;21680;52.400;16.920;2022-09-01T05:58:51;101383.92;;;13.22;70.33
35577;BME280;21680;52.400;16.920;2022-09-01T06:01:18;101386.83;;;13.28;70.34
35577;BME280;21680;52.400;16.920;2022-09-01T06:03:50;101387.50;;;13.33;70.33
35577;BME280;21680;52.400;16.920;2022-09-01T06:06:16;101395.86;;;13.37;70.29
35577;BME280;21680;52.400;16.920;2022-09-01T06:08:42;101389.27;;;13.44;70.33
35577;BME280;21680;52.400;16.920;2022-09-01T06:11:09;101392.56;;;13.51;70.30
35577;BME280;21680;52.400;16.920;2022-09-01T06:13:37;101396.74;;;13.58;70.26
35577;BME280;21680;52.400;16.920;2022-09-01T06:16:06;101401.39;;;13.64;70.28
35577;BME280;21680;52.400;16.920;2022-09-01T06:18:36;101400.65;;;13.71;70.18
35577;BME280;21680;52.400;16.920;2022-09-01T06:21:03;101398.63;;;13.76;70.19
35577;BME280;21680;52.400;16.920;2022-09-01T06:23:32;101405.23;;;13.79;70.07
35577;BME280;21680;52.400;16.920;2022-09-01T06:25:58;101401.85;;;13.84;70.07
35577;BME280;21680;52.400;16.920;2022-09-01T06:28:24;101403.88;;;13.89;69.97
35577;BME280;21680;52.400;16.920;2022-09-01T06:30:49;101408.65;;;13.93;69.87
35577;BME280;21680;52.400;16.920;2022-09-01T06:33:16;101412.89;;;13.98;69.86
35577;BME280;21680;52.400;16.920;2022-09-01T06:35:44;101419.69;;;14.07;69.77
35577;BME280;21680;52.400;16.920;2022-09-01T06:38:12;101414.89;;;14.14;69.78
35577;BME280;21680;52.400;16.920;2022-09-01T06:40:40;101415.81;;;14.23;69.71
35577;BME280;21680;52.400;16.920;2022-09-01T06:43:07;101417.75;;;14.29;69.60
35577;BME280;21680;52.400;16.920;2022-09-01T06:45:38;101422.86;;;14.36;69.44
35577;BME280;21680;52.400;16.920;2022-09-01T06:48:06;101410.58;;;14.39;69.42
35577;BME280;21680;52.400;16.920;2022-09-01T06:50:32;101421.84;;;14.48;69.40
35577;BME280;21680;52.400;16.920;2022-09-01T06:52:58;101422.76;;;14.57;69.30
35577;BME280;21680;52.400;16.920;2022-09-01T06:55:29;101425.56;;;14.65;69.18
35577;BME280;21680;52.400;16.920;2022-09-01T06:57:57;101421.16;;;14.72;69.07
35577;BME280;21680;52.400;16.920;2022-09-01T07:00:23;101421.88;;;14.76;68.95
35577;BME280;21680;52.400;16.920;2022-09-01T07:02:52;101421.98;;;14.83;68.94
35577;BME280;21680;52.400;16.920;2022-09-01T07:05:20;101421.69;;;14.89;68.79
35577;BME280;21680;52.400;16.920;2022-09-01T07:07:51;101421.95;;;15.02;68.81
35577;BME280;21680;52.400;16.920;2022-09-01T07:10:15;101421.02;;;15.11;68.59
35577;BME280;21680;52.400;16.920;2022-09-01T07:12:43;101422.63;;;15.15;68.35
35577;BME280;21680;52.400;16.920;2022-09-01T07:15:10;101422.47;;;15.18;68.20
35577;BME280;21680;52.400;16.920;2022-09-01T07:17:47;101416.76;;;15.24;68.03
35577;BME280;21680;52.400;16.920;2022-09-01T07:20:14;101422.41;;;15.29;67.76
35577;BME280;21680;52.400;16.920;2022-09-01T07:22:41;101415.09;;;15.31;67.47
35577;BME280;21680;52.400;16.920;2022-09-01T07:25:07;101415.02;;;15.32;67.40
35577;BME280;21680;52.400;16.920;2022-09-01T07:27:35;101415.73;;;15.36;67.25
35577;BME280;21680;52.400;16.920;2022-09-01T07:30:01;101413.52;;;15.44;67.22
35577;BME280;21680;52.400;16.920;2022-09-01T07:32:27;101407.17;;;15.53;67.10
35577;BME280;21680;52.400;16.920;2022-09-01T07:34:55;101410.45;;;15.60;66.97
35577;BME280;21680;52.400;16.920;2022-09-01T07:37:21;101412.65;;;15.69;66.84
35577;BME280;21680;52.400;16.920;2022-09-01T07:39:47;101407.80;;;15.76;66.63
35577;BME280;21680;52.400;16.920;2022-09-01T07:42:15;101407.87;;;15.83;66.56
35577;BME280;21680;52.400;16.920;2022-09-01T07:44:41;101408.10;;;15.87;66.27
35577;BME280;21680;52.400;16.920;2022-09-01T07:47:09;101412.00;;;15.90;66.20
35577;BME280;21680;52.400;16.920;2022-09-01T07:49:35;101404.52;;;15.95;66.12
35577;BME280;21680;52.400;16.920;2022-09-01T07:52:03;101409.91;;;16.04;66.04
35577;BME280;21680;52.400;16.920;2022-09-01T07:54:29;101413.46;;;16.13;65.84
35577;BME280;21680;52.400;16.920;2022-09-01T07:56:55;101414.09;;;16.18;65.52
35577;BME280;21680;52.400;16.920;2022-09-01T07:59:21;101412.97;;;16.22;65.34
35577;BME280;21680;52.400;16.920;2022-09-01T08:01:47;101413.02;;;16.29;65.22
35577;BME280;21680;52.400;16.920;2022-09-01T08:04:13;101415.88;;;16.35;65.05
35577;BME280;21680;52.400;16.920;2022-09-01T08:06:39;101414.44;;;16.36;64.77
35577;BME280;21680;52.400;16.920;2022-09-01T08:09:05;101419.84;;;16.36;64.68
35577;BME280;21680;52.400;16.920;2022-09-01T08:11:32;101424.70;;;16.38;64.44
35577;BME280;21680;52.400;16.920;2022-09-01T08:13:58;101429.63;;;16.39;64.35
35577;BME280;21680;52.400;16.920;2022-09-01T08:16:25;101421.98;;;16.38;64.07
35577;BME280;21680;52.400;16.920;2022-09-01T08:18:52;101423.39;;;16.45;64.16
35577;BME280;21680;52.400;16.920;2022-09-01T08:21:18;101421.14;;;16.53;63.97
35577;BME280;21680;52.400;16.920;2022-09-01T08:23:46;101417.44;;;16.63;63.68
35577;BME280;21680;52.400;16.920;2022-09-01T08:26:13;101417.34;;;16.73;63.34
35577;BME280;21680;52.400;16.920;2022-09-01T08:28:40;101414.20;;;16.81;63.16
35577;BME280;21680;52.400;16.920;2022-09-01T08:31:07;101419.09;;;16.90;62.76
35577;BME280;21680;52.400;16.920;2022-09-01T08:33:35;101419.92;;;16.99;62.78
35577;BME280;21680;52.400;16.920;2022-09-01T08:36:03;101419.90;;;17.15;62.65
35577;BME280;21680;52.400;16.920;2022-09-01T08:38:32;101420.63;;;17.26;62.45
35577;BME280;21680;52.400;16.920;2022-09-01T08:40:58;101417.34;;;17.28;61.92
35577;BME280;21680;52.400;16.920;2022-09-01T08:43:41;101414.76;;;17.33;61.80
35577;BME280;21680;52.400;16.920;2022-09-01T08:46:23;101411.38;;;17.37;61.51
35577;BME280;21680;52.400;16.920;2022-09-01T08:48:51;101412.92;;;17.34;60.32
35577;BME280;21680;52.400;16.920;2022-09-01T08:51:34;101420.63;;;17.26;60.49
35577;BME280;21680;52.400;16.920;2022-09-01T08:56:39;101423.13;;;17.22;59.77
35577;BME280;21680;52.400;16.920;2022-09-01T08:59:05;101421.38;;;17.20;59.60
35577;BME280;21680;52.400;16.920;2022-09-01T09:01:42;101416.83;;;17.21;59.52
35577;BME280;21680;52.400;16.920;2022-09-01T09:07:09;101407.47;;;17.27;58.97
35577;BME280;21680;52.400;16.920;2022-09-01T09:09:54;101403.89;;;17.26;58.37
35577;BME280;21680;52.400;16.920;2022-09-01T09:12:54;101399.25;;;17.28;58.19
35577;BME280;21680;52.400;16.920;2022-09-01T09:15:26;101407.14;;;17.40;57.69
35577;BME280;21680;52.400;16.920;2022-09-01T09:17:58;101404.15;;;17.44;57.02
35577;BME280;21680;52.400;16.920;2022-09-01T09:20:27;101398.52;;;17.40;56.69
35577;BME280;21680;52.400;16.920;2022-09-01T09:22:53;101403.28;;;17.44;56.59
35577;BME280;21680;52.400;16.920;2022-09-01T09:25:21;101406.19;;;17.48;56.49
35577;BME280;21680;52.400;16.920;2022-09-01T09:27:48;101403.97;;;17.47;56.42
35577;BME280;21680;52.400;16.920;2022-09-01T09:30:22;101404.19;;;17.59;55.96
35577;BME280;21680;52.400;16.920;2022-09-01T09:33:01;101403.19;;;17.68;55.49
35577;BME280;21680;52.400;16.920;2022-09-01T09:35:50;101400.59;;;17.74;55.19
35577;BME280;21680;52.400;16.920;2022-09-01T09:40:58;101400.20;;;17.80;54.55
35577;BME280;21680;52.400;16.920;2022-09-01T09:43:30;101393.73;;;17.90;53.56
35577;BME280;21680;52.400;16.920;2022-09-01T09:51:39;101388.13;;;18.14;52.65
35577;BME280;21680;52.400;16.920;2022-09-01T09:54:10;101381.55;;;18.18;51.99
35577;BME280;21680;52.400;16.920;2022-09-01T09:56:43;101382.87;;;18.25;51.85
35577;BME280;21680;52.400;16.920;2022-09-01T09:59:29;101379.57;;;18.27;50.87
35577;BME280;21680;52.400;16.920;2022-09-01T10:01:58;101383.16;;;18.28;50.96
35577;BME280;21680;52.400;16.920;2022-09-01T10:04:35;101380.53;;;18.40;51.31
35577;BME280;21680;52.400;16.920;2022-09-01T10:07:00;101376.45;;;18.47;50.59
35577;BME280;21680;52.400;16.920;2022-09-01T10:11:56;101373.53;;;18.72;50.29
35577;BME280;21680;52.400;16.920;2022-09-01T10:14:24;101370.02;;;18.77;50.41
35577;BME280;21680;52.400;16.920;2022-09-01T10:17:05;101371.16;;;18.87;50.13
35577;BME280;21680;52.400;16.920;2022-09-01T10:19:45;101372.67;;;18.98;50.17
35577;BME280;21680;52.400;16.920;2022-09-01T10:22:20;101366.20;;;19.13;49.77
35577;BME280;21680;52.400;16.920;2022-09-01T10:24:47;101367.98;;;19.27;49.67
35577;BME280;21680;52.400;16.920;2022-09-01T10:27:20;101358.72;;;19.37;48.32
35577;BME280;21680;52.400;16.920;2022-09-01T10:30:00;101354.88;;;19.46;47.25
35577;BME280;21680;52.400;16.920;2022-09-01T10:32:25;101356.98;;;19.56;48.05
35577;BME280;21680;52.400;16.920;2022-09-01T10:34:54;101359.62;;;19.70;47.94
35577;BME280;21680;52.400;16.920;2022-09-01T10:37:20;101368.28;;;19.82;47.37
35577;BME280;21680;52.400;16.920;2022-09-01T10:42:40;101366.09;;;19.74;46.44
35577;BME280;21680;52.400;16.920;2022-09-01T10:45:15;101363.16;;;19.77;46.82
35577;BME280;21680;52.400;16.920;2022-09-01T10:47:47;101366.91;;;19.69;45.82
35577;BME280;21680;52.400;16.920;2022-09-01T10:52:52;101364.01;;;19.45;45.78
35577;BME280;21680;52.400;16.920;2022-09-01T10:55:21;101366.38;;;19.37;45.65
35577;BME280;21680;52.400;16.920;2022-09-01T11:13:52;101363.97;;;19.72;45.75
35577;BME280;21680;52.400;16.920;2022-09-01T11:16:26;101363.43;;;19.80;45.69
35577;BME280;21680;52.400;16.920;2022-09-01T11:19:15;101363.32;;;19.82;45.79
35577;BME280;21680;52.400;16.920;2022-09-01T11:21:41;101367.84;;;19.75;45.47
35577;BME280;21680;52.400;16.920;2022-09-01T11:27:12;101361.80;;;19.77;45.54
35577;BME280;21680;52.400;16.920;2022-09-01T11:30:06;101364.14;;;20.02;45.82
35577;BME280;21680;52.400;16.920;2022-09-01T11:32:33;101361.85;;;20.08;45.36
35577;BME280;21680;52.400;16.920;2022-09-01T11:35:02;101362.22;;;20.22;45.59
35577;BME280;21680;52.400;16.920;2022-09-01T11:37:33;101360.08;;;20.33;45.65
35577;BME280;21680;52.400;16.920;2022-09-01T11:40:00;101366.33;;;20.53;45.54
35577;BME280;21680;52.400;16.920;2022-09-01T11:42:31;101362.74;;;20.71;45.40
35577;BME280;21680;52.400;16.920;2022-09-01T11:45:26;101364.52;;;20.83;45.31
35577;BME280;21680;52.400;16.920;2022-09-01T11:47:42;101363.91;;;20.85;44.78
35577;BME280;21680;52.400;16.920;2022-09-01T11:50:24;101362.20;;;20.90;44.80
35577;BME280;21680;52.400;16.920;2022-09-01T11:52:55;101366.20;;;20.97;44.63
35577;BME280;21680;52.400;16.920;2022-09-01T11:55:31;101363.65;;;20.83;44.00
35577;BME280;21680;52.400;16.920;2022-09-01T11:57:58;101361.30;;;20.84;44.19
35577;BME280;21680;52.400;16.920;2022-09-01T12:00:33;101363.65;;;20.77;43.93
35577;BME280;21680;52.400;16.920;2022-09-01T12:02:56;101365.31;;;20.67;43.80
35577;BME280;21680;52.400;16.920;2022-09-01T12:05:28;101369.06;;;20.53;43.40
35577;BME280;21680;52.400;16.920;2022-09-01T12:07:56;101370.04;;;20.52;43.54
35577;BME280;21680;52.400;16.920;2022-09-01T12:10:27;101364.83;;;20.67;43.96
35577;BME280;21680;52.400;16.920;2022-09-01T12:13:00;101365.53;;;20.88;44.03
35577;BME280;21680;52.400;16.920;2022-09-01T12:15:33;101366.13;;;21.04;44.02
35577;BME280;21680;52.400;16.920;2022-09-01T12:18:11;101364.53;;;21.07;43.83
35577;BME280;21680;52.400;16.920;2022-09-01T12:20:38;101363.77;;;21.23;43.97
35577;BME280;21680;52.400;16.920;2022-09-01T12:23:14;101356.48;;;21.29;43.60
35577;BME280;21680;52.400;16.920;2022-09-01T12:25:43;101359.23;;;21.35;43.62
35577;BME280;21680;52.400;16.920;2022-09-01T12:28:09;101355.28;;;21.39;43.13
35577;BME280;21680;52.400;16.920;2022-09-01T12:30:35;101354.88;;;21.32;42.98
35577;BME280;21680;52.400;16.920;2022-09-01T12:33:04;101354.92;;;21.44;43.03
35577;BME280;21680;52.400;16.920;2022-09-01T12:35:31;101354.67;;;21.41;42.48
35577;BME280;21680;52.400;16.920;2022-09-01T12:40:43;101345.58;;;21.29;42.11
35577;BME280;21680;52.400;16.920;2022-09-01T12:43:10;101346.68;;;21.27;42.12
35577;BME280;21680;52.400;16.920;2022-09-01T12:45:41;101340.91;;;21.19;42.11
35577;BME280;21680;52.400;16.920;2022-09-01T12:50:59;101344.72;;;21.34;41.95
35577;BME280;21680;52.400;16.920;2022-09-01T12:53:23;101344.39;;;21.21;41.63
35577;BME280;21680;52.400;16.920;2022-09-01T12:55:56;101337.27;;;21.07;41.62
35577;BME280;21680;52.400;16.920;2022-09-01T12:58:43;101342.20;;;21.02;41.47
35577;BME280;21680;52.400;16.920;2022-09-01T13:01:22;101335.38;;;21.02;41.50
35577;BME280;21680;52.400;16.920;2022-09-01T13:03:42;101332.40;;;20.99;41.70
35577;BME280;21680;52.400;16.920;2022-09-01T13:06:11;101327.70;;;21.01;41.88
35577;BME280;21680;52.400;16.920;2022-09-01T13:08:37;101329.75;;;21.16;41.78
35577;BME280;21680;52.400;16.920;2022-09-01T13:11:07;101335.64;;;21.04;41.34
35577;BME280;21680;52.400;16.920;2022-09-01T13:13:34;101337.50;;;21.04;41.86
35577;BME280;21680;52.400;16.920;2022-09-01T13:16:00;101329.14;;;21.18;42.08
35577;BME280;21680;52.400;16.920;2022-09-01T13:18:28;101329.47;;;21.32;41.99
35577;BME280;21680;52.400;16.920;2022-09-01T13:20:55;101320.40;;;21.26;41.86
35577;BME280;21680;52.400;16.920;2022-09-01T13:23:22;101328.95;;;21.27;42.03
35577;BME280;21680;52.400;16.920;2022-09-01T13:25:48;101326.86;;;21.30;41.61
35577;BME280;21680;52.400;16.920;2022-09-01T13:28:14;101329.86;;;21.15;41.37
35577;BME280;21680;52.400;16.920;2022-09-01T13:30:42;101330.28;;;20.97;41.69
35577;BME280;21680;52.400;16.920;2022-09-01T13:33:08;101328.83;;;21.04;42.02
35577;BME280;21680;52.400;16.920;2022-09-01T13:35:35;101333.16;;;21.01;41.76